FWKI/LLW METAR and TAF weather

Enter ICAO airport designator
Station Type Date Time Source
FWKI METAR 2021/01/22 06:00 UTC NOAA

FWKI 220600Z 27009KT 9999 FEW025CB BKN028 23/19 Q1017 NOSIG


Station Type Date Time Source
FWKI Decoded METAR 2021/01/22 06:00 UTC NOAA

Lilongwe International Airport, Malawi (FWKI) 13-47S 033-46E 1229M
Jan 22, 2021 - 01:00 AM EST / 2021.01.22 0600 UTC
Wind: from the W (270 degrees) at 10 MPH (9 KT):0
Visibility: greater than 7 mile(s):0
Sky conditions: mostly cloudy
Weather: Cumulonimbus clouds observed
Temperature: 73 F (23 C)
Dew Point: 66 F (19 C)
Relative Humidity: 78%
Pressure (altimeter): 30.03 in. Hg (1017 hPa)
ob: FWKI 220600Z 27009KT 9999 FEW025CB BKN028 23/19 Q1017 NOSIG
cycle: 6

Station Type Date Time Source
FWKI TAF 2021/01/22 06:39 UTC NOAA

TAF TAF FWKI 220400Z 2206/2312 30005KT 9999 FEW020CB BKN023
BECMG 2206/2208 FEW023CB BKN025
TEMPO 2209/2213 30006KT 7000 TSRA FEW022CB BKN025 BKN080
BECMG 2215/2217 34007KT 9999 FEW025CB BKN030
BECMG 2306/2308 35005KT 9999 FEW018CB BKN025

Example: see airport list